METAR / TAF
Helsinki-Vantaa
HELSINKI/VANTAA
Metar
EFHK 171020Z 06011KT CAVOK 30/12 Q1016 BECMG 12012G23KT

10:20 UTC

Wind: 60° 11kt

Visibility:

Sky:

Temp: 30 deg C / 86 deg F

Dewpoint: 12 deg C / 53.6 deg F

Pressure: 1016 hPa

TAF
TAF EFHK 170831Z 1709/1809 06009KT CAVOK BECMG 1710/1711 12012G23KT BECMG 1719/1721 04003KT
Helsinki, Malmi
HELSINKI/MALMI
Turku
TURKU/ABO
Metar
EFTU 171020Z AUTO 11013KT CAVOK 31/09 Q1015

10:20 UTC

Wind: 110° 13kt

Visibility:

Sky:

Temp: 31 deg C / 87.8 deg F

Dewpoint: 9 deg C / 48.2 deg F

Pressure: 1015 hPa

TAF
TAF EFTU 170831Z 1709/1809 08006KT CAVOK PROB30 TEMPO 1713/1716 FEW050TCU
Tampere, Pirkkala
TAMPERE/PIRKKALA
Metar
EFTP 171020Z AUTO 07011G22KT 030V100 CAVOK 31/12 Q1017

10:20 UTC

Wind: 70° 11kt

Visibility:

Sky:

Temp: 31 deg C / 87.8 deg F

Dewpoint: 12 deg C / 53.6 deg F

Pressure: 1017 hPa

TAF
TAF EFTP 170826Z 1709/1809 07009KT CAVOK
Maarianhamina
MARIEHAMN/ALAND
Metar
EFMA 171020Z 07009KT 040V130 CAVOK 30/11 Q1015

10:20 UTC

Wind: 70° 9kt

Visibility:

Sky:

Temp: 30 deg C / 86 deg F

Dewpoint: 11 deg C / 51.8 deg F

Pressure: 1015 hPa

TAF
TAF EFMA 170831Z 1709/1718 08009KT CAVOK
Pori
PORI (MIL/CIV)
Metar
EFPO 171020Z AUTO 09007KT 040V140 9999 FEW083/// 31/09 Q1016

10:20 UTC

Wind: 90° 7kt

Visibility: 9999 m

Sky: FEW 8300 ft

Temp: 31 deg C / 87.8 deg F

Dewpoint: 9 deg C / 48.2 deg F

Pressure: 1016 hPa

TAF
TAF EFPO 170826Z 1709/1717 11006KT CAVOK
Vaasa
VAASA
Metar
EFVA 171020Z AUTO VRB05KT CAVOK 29/13 Q1018

10:20 UTC

Wind: ° 5kt

Visibility:

Sky:

Temp: 29 deg C / 84.2 deg F

Dewpoint: 13 deg C / 55.4 deg F

Pressure: 1018 hPa

TAF
TAF EFVA 170826Z 1709/1809 02006KT CAVOK
Kruunupyy
KRUUNUPYY
Metar
EFKK 171020Z AUTO VRB04KT CAVOK 30/15 Q1018

10:20 UTC

Wind: ° 4kt

Visibility:

Sky:

Temp: 30 deg C / 86 deg F

Dewpoint: 15 deg C / 59 deg F

Pressure: 1018 hPa

TAF
TAF EFKK 170826Z 1709/1718 01005KT CAVOK
Jyväskylä, Tikkakoski
JYVASKYLA (MIL/C
Metar
EFJY 171020Z AUTO 07008KT 030V110 CAVOK 30/11 Q1018

10:20 UTC

Wind: 70° 8kt

Visibility:

Sky:

Temp: 30 deg C / 86 deg F

Dewpoint: 11 deg C / 51.8 deg F

Pressure: 1018 hPa

TAF
TAF EFJY 170826Z 1709/1809 09007KT CAVOK
Kuopio
KUOPIO (MIL/CIV)
Metar
EFKU 171020Z AUTO 11005KT 060V140 CAVOK 30/12 Q1019

10:20 UTC

Wind: 110° 5kt

Visibility:

Sky:

Temp: 30 deg C / 86 deg F

Dewpoint: 12 deg C / 53.6 deg F

Pressure: 1019 hPa

TAF
TAF EFKU 170824Z 1709/1809 08003KT CAVOK
Joensuu
JOENSUU
Metar
EFJO 171020Z AUTO 02006KT 310V070 CAVOK 30/12 Q1018

10:20 UTC

Wind: 20° 6kt

Visibility:

Sky:

Temp: 30 deg C / 86 deg F

Dewpoint: 12 deg C / 53.6 deg F

Pressure: 1018 hPa

TAF
TAF EFJO 170824Z 1709/1716 07004KT CAVOK
Halli
HALLI (FIN-AFB)
Metar
EFHA 171020Z 10008KT 050V140 CAVOK 30/11 Q1018

10:20 UTC

Wind: 100° 8kt

Visibility:

Sky:

Temp: 30 deg C / 86 deg F

Dewpoint: 11 deg C / 51.8 deg F

Pressure: 1018 hPa

TAF
TAF EFHA 170826Z 1709/1714 09009KT CAVOK
Utti
UTTI (FIN-AFB)
Metar
EFUT 171020Z 09011KT 040V130 CAVOK 30/10 Q1016

10:20 UTC

Wind: 90° 11kt

Visibility:

Sky:

Temp: 30 deg C / 86 deg F

Dewpoint: 10 deg C / 50 deg F

Pressure: 1016 hPa

TAF
TAF EFUT 170824Z 1709/1713 09010KT CAVOK
Mikkeli
MIKKELI
Metar
EFMI 171020Z AUTO 07007KT 030V130 CAVOK 30/12 Q1018

10:20 UTC

Wind: 70° 7kt

Visibility:

Sky:

Temp: 30 deg C / 86 deg F

Dewpoint: 12 deg C / 53.6 deg F

Pressure: 1018 hPa

Savonlinna
SAVONLINNA (AUT)
Metar
EFSA 171020Z 07006KT 030V120 CAVOK 31/12 Q1018

10:20 UTC

Wind: 70° 6kt

Visibility:

Sky:

Temp: 31 deg C / 87.8 deg F

Dewpoint: 12 deg C / 53.6 deg F

Pressure: 1018 hPa

TAF
TAF EFSA 170824Z 1709/1718 09007KT CAVOK
Lappeenranta
LAPPEENRANTA
Metar
EFLP 171020Z AUTO 06010KT 020V110 CAVOK 30/11 Q1017

10:20 UTC

Wind: 60° 10kt

Visibility:

Sky:

Temp: 30 deg C / 86 deg F

Dewpoint: 11 deg C / 51.8 deg F

Pressure: 1017 hPa

Oulu
OULU/ULEABORG
Metar
EFOU 171020Z AUTO 17005KT 120V250 9999 FEW071/// 31/12 Q1019

10:20 UTC

Wind: 170° 5kt

Visibility: 9999 m

Sky: FEW 7100 ft

Temp: 31 deg C / 87.8 deg F

Dewpoint: 12 deg C / 53.6 deg F

Pressure: 1019 hPa

TAF
TAF EFOU 170824Z 1709/1809 11002KT CAVOK
Kemi
KEMI
Metar
EFKE 171020Z 18005KT 110V250 CAVOK 30/11 Q1019

10:20 UTC

Wind: 180° 5kt

Visibility:

Sky:

Temp: 30 deg C / 86 deg F

Dewpoint: 11 deg C / 51.8 deg F

Pressure: 1019 hPa

TAF
TAF EFKE 170824Z 1709/1718 19005KT CAVOK
Rovaniemi
ROVANIEMI (CIV/M
Metar
EFRO 171020Z AUTO 15005KT 030V250 9999 NCD 28/12 Q1020

10:20 UTC

Wind: 150° 5kt

Visibility: 9999 m

Sky:

Temp: 28 deg C / 82.4 deg F

Dewpoint: 12 deg C / 53.6 deg F

Pressure: 1020 hPa

TAF
TAF EFRO 170824Z 1709/1809 23005KT CAVOK
Enontekiö
ENONTEKIO
Metar
EFET 171020Z AUTO 19009KT 140V230 CAVOK 28/11 Q1019

10:20 UTC

Wind: 190° 9kt

Visibility:

Sky:

Temp: 28 deg C / 82.4 deg F

Dewpoint: 11 deg C / 51.8 deg F

Pressure: 1019 hPa

Ivalo
IVALO
Metar
EFIV 171020Z AUTO 21010KT 180V270 CAVOK 29/12 Q1018

10:20 UTC

Wind: 210° 10kt

Visibility:

Sky:

Temp: 29 deg C / 84.2 deg F

Dewpoint: 12 deg C / 53.6 deg F

Pressure: 1018 hPa

TAF
TAF EFIV 170525Z 1706/1710 22009KT CAVOK
Kittilä
KITTILA
Metar
EFKT 171020Z 20007KT 160V250 CAVOK 28/11 Q1019

10:20 UTC

Wind: 200° 7kt

Visibility:

Sky:

Temp: 28 deg C / 82.4 deg F

Dewpoint: 11 deg C / 51.8 deg F

Pressure: 1019 hPa

TAF
TAF EFKT 170824Z 1709/1711 19006KT CAVOK
Kuusamo
KUUSAMO
Metar
EFKS 171020Z AUTO 18005KT 070V220 CAVOK 27/13 Q1021

10:20 UTC

Wind: 180° 5kt

Visibility:

Sky:

Temp: 27 deg C / 80.6 deg F

Dewpoint: 13 deg C / 55.4 deg F

Pressure: 1021 hPa

TAF
TAF EFKS 170824Z 1709/1713 13005KT CAVOK
Kajaani
KAJAANI
Metar
EFKI 171020Z AUTO 29005KT 240V360 CAVOK 29/14 Q1020

10:20 UTC

Wind: 290° 5kt

Visibility:

Sky:

Temp: 29 deg C / 84.2 deg F

Dewpoint: 14 deg C / 57.2 deg F

Pressure: 1020 hPa

Varkaus
VARKAUS
Seinäjoki
SEINAJOKI-ILMAJO
Metar
EFSI 171020Z AUTO 16004KT 100V250 CAVOK 30/12 Q1018

10:20 UTC

Wind: 160° 4kt

Visibility:

Sky:

Temp: 30 deg C / 86 deg F

Dewpoint: 12 deg C / 53.6 deg F

Pressure: 1018 hPa

Print Friendly, PDF & Email